Time;durP1;ratioP1;P1;durP2;ratioP2;P2;SDS_P1;SDS_P2;PMS_P1;PMS_P2;Temp;Humidity;BMP_temperature;BMP_pressure;BME280_temperature;BME280_humidity;BME280_pressure;Samples;Min_cycle;Max_cycle;Signal;HPM_P1;HPM_P2
2022/07/19 00:02:05;;;;;;;2.33;2.23;;;;;;;22.12;40.73;101686.56;5004782;28;98311;-47
2022/07/19 00:04:31;;;;;;;2.87;2.67;;;;;;;22.04;40.75;101691.34;5006502;28;97131;-47
2022/07/19 00:06:57;;;;;;;3.10;2.90;;;;;;;21.97;41.07;101692.03;5004274;28;97305;-47
2022/07/19 00:09:23;;;;;;;2.33;2.17;;;;;;;21.95;40.94;101686.22;5003607;28;97522;-48
2022/07/19 00:11:49;;;;;;;2.40;2.27;;;;;;;21.91;40.93;101691.44;5003183;28;97140;-47
2022/07/19 00:14:15;;;;;;;2.50;2.30;;;;;;;21.86;40.94;101683.91;5005704;28;97104;-47
2022/07/19 00:16:40;;;;;;;3.10;2.67;;;;;;;21.82;41.12;101683.47;5002531;28;96865;-47
2022/07/19 00:19:06;;;;;;;3.67;3.00;;;;;;;21.79;41.05;101687.34;5002807;28;96970;-47
2022/07/19 00:21:31;;;;;;;2.67;2.50;;;;;;;21.74;41.10;101686.19;5001074;28;97294;-49
2022/07/19 00:23:57;;;;;;;2.77;2.50;;;;;;;21.68;41.17;101688.38;5003578;28;96894;-47
2022/07/19 00:26:22;;;;;;;3.40;2.33;;;;;;;21.60;41.30;101693.88;5001367;28;97380;-47
2022/07/19 00:28:48;;;;;;;3.07;2.87;;;;;;;21.51;41.54;101693.59;5001663;28;98632;-47
2022/07/19 00:31:13;;;;;;;2.53;2.33;;;;;;;21.45;41.41;101688.13;5000078;28;97336;-48
2022/07/19 00:33:38;;;;;;;2.43;2.33;;;;;;;21.41;41.54;101689.75;5005531;28;97191;-47
2022/07/19 00:36:04;;;;;;;2.30;2.20;;;;;;;21.35;41.68;101689.88;5003560;28;97088;-47
2022/07/19 00:38:30;;;;;;;4.00;3.10;;;;;;;21.32;41.83;101693.75;5007065;28;97808;-47
2022/07/19 00:40:55;;;;;;;3.30;3.00;;;;;;;21.29;41.92;101686.47;5003698;28;97191;-47
2022/07/19 00:43:20;;;;;;;4.10;2.60;;;;;;;21.26;41.81;101690.34;5005404;28;97020;-47
2022/07/19 00:45:46;;;;;;;2.43;2.27;;;;;;;21.19;41.99;101691.00;5003329;28;96859;-47
2022/07/19 00:48:11;;;;;;;2.53;2.33;;;;;;;21.12;42.12;101697.25;4997702;28;96899;-47
2022/07/19 00:50:37;;;;;;;3.30;2.90;;;;;;;21.05;42.25;101700.72;5003178;28;97132;-48
2022/07/19 00:53:04;;;;;;;2.77;2.57;;;;;;;20.99;42.25;101696.50;5000045;28;97659;-47
2022/07/19 00:55:38;;;;;;;3.37;2.83;;;;;;;20.92;42.38;101709.84;5004940;28;97114;-47
2022/07/19 00:58:03;;;;;;;2.67;2.47;;;;;;;20.86;42.42;101700.03;5005950;28;100051;-47
2022/07/19 01:00:32;;;;;;;2.63;2.43;;;;;;;20.79;42.53;101689.53;5001632;28;97038;-47
2022/07/19 01:02:58;;;;;;;2.17;2.07;;;;;;;20.70;42.62;101696.31;5001596;28;97303;-47
2022/07/19 01:05:23;;;;;;;2.80;2.60;;;;;;;20.61;42.75;101702.31;4998679;28;97662;-47
2022/07/19 01:07:49;;;;;;;4.50;3.33;;;;;;;20.53;42.65;101695.13;4979757;28;96950;-47
2022/07/19 01:10:16;;;;;;;3.00;2.70;;;;;;;20.47;42.85;101698.00;4966569;28;98691;-47
2022/07/19 01:12:42;;;;;;;2.50;2.30;;;;;;;20.44;42.89;101693.50;4970693;28;98989;-47
2022/07/19 01:15:18;;;;;;;2.73;2.60;;;;;;;20.42;43.32;101695.31;4988992;28;97082;-47
2022/07/19 01:17:44;;;;;;;2.97;2.77;;;;;;;20.39;43.08;101691.56;4976922;28;101742;-47
2022/07/19 01:20:10;;;;;;;3.70;2.83;;;;;;;20.38;43.21;101700.50;4983070;28;96951;-47
2022/07/19 01:22:36;;;;;;;3.30;3.00;;;;;;;20.34;43.23;101698.00;4988499;28;96684;-47
2022/07/19 01:25:01;;;;;;;3.47;3.17;;;;;;;20.31;43.37;101692.72;5004259;28;96783;-49
2022/07/19 01:27:27;;;;;;;2.73;2.53;;;;;;;20.27;43.49;101695.81;5009338;28;97354;-47
2022/07/19 01:29:52;;;;;;;3.07;2.87;;;;;;;20.21;43.43;101697.97;5005350;28;97458;-47
2022/07/19 01:32:17;;;;;;;3.07;2.80;;;;;;;20.18;43.46;101701.81;5007932;28;96923;-47
2022/07/19 01:34:43;;;;;;;2.60;2.40;;;;;;;20.12;43.42;101703.94;5006588;28;97359;-47
2022/07/19 01:37:08;;;;;;;3.47;3.10;;;;;;;20.06;43.56;101706.06;5005319;28;97347;-47
2022/07/19 01:39:33;;;;;;;2.90;2.70;;;;;;;20.00;43.43;101706.19;5005103;28;97241;-47
2022/07/19 01:41:59;;;;;;;4.30;3.10;;;;;;;19.93;43.72;101701.22;5005554;28;97041;-47
2022/07/19 01:44:24;;;;;;;3.10;2.90;;;;;;;19.89;43.90;101708.38;5008954;28;97287;-47
2022/07/19 01:46:49;;;;;;;2.90;2.63;;;;;;;19.87;43.74;101703.34;5008915;28;103230;-47
2022/07/19 01:49:15;;;;;;;3.20;2.90;;;;;;;19.83;43.96;101708.47;5004966;28;97188;-47
2022/07/19 01:51:40;;;;;;;4.03;3.00;;;;;;;19.77;43.99;101704.25;5006424;28;97349;-47
2022/07/19 01:54:05;;;;;;;2.73;2.53;;;;;;;19.74;44.11;101705.31;5004531;28;97419;-48
2022/07/19 01:56:31;;;;;;;2.77;2.60;;;;;;;19.72;44.31;101697.50;5007719;28;98513;-47
2022/07/19 01:58:56;;;;;;;3.03;2.83;;;;;;;19.71;44.13;101698.00;5005759;28;98453;-46
2022/07/19 02:01:21;;;;;;;3.50;2.70;;;;;;;19.64;44.21;101695.81;5003719;28;100833;-46
2022/07/19 02:03:47;;;;;;;2.93;2.73;;;;;;;19.56;44.56;101692.91;5004994;28;97498;-47
2022/07/19 02:06:12;;;;;;;3.10;2.83;;;;;;;19.51;44.50;101704.88;5005354;28;110934;-47
2022/07/19 02:08:38;;;;;;;3.10;2.80;;;;;;;19.51;44.74;101696.50;5004092;28;97050;-47
2022/07/19 02:11:34;;;;;;;2.83;2.63;;;;;;;19.52;44.54;101688.91;4987674;28;97421;-47
2022/07/19 02:13:49;;;;;;;2.33;2.13;;;;;;;19.47;44.58;101698.88;5003836;28;98819;-47
2022/07/19 02:16:15;;;;;;;3.10;2.90;;;;;;;19.41;44.88;101696.16;5006886;28;97032;-47
2022/07/19 02:18:40;;;;;;;3.03;2.83;;;;;;;19.38;44.80;101690.88;5004348;28;96964;-47
2022/07/19 02:21:06;;;;;;;3.67;2.73;;;;;;;19.33;44.75;101689.63;5007959;28;97134;-47
2022/07/19 02:23:31;;;;;;;2.03;1.93;;;;;;;19.30;44.95;101693.50;5004257;28;101830;-47
2022/07/19 02:25:56;;;;;;;4.33;2.40;;;;;;;19.27;44.93;101691.75;5006021;28;97401;-47
2022/07/19 02:28:22;;;;;;;2.73;2.50;;;;;;;19.26;44.99;101697.88;5002948;28;101795;-47
2022/07/19 02:30:47;;;;;;;3.30;3.00;;;;;;;19.25;45.08;101693.56;5004361;28;97481;-47
2022/07/19 02:33:12;;;;;;;2.93;2.73;;;;;;;19.23;45.20;101694.09;5007264;28;97208;-48
2022/07/19 02:35:38;;;;;;;2.97;2.77;;;;;;;19.21;45.27;101688.28;5005168;28;97082;-47
2022/07/19 02:38:03;;;;;;;3.10;2.80;;;;;;;19.18;45.33;101694.16;5007817;27;97175;-47
2022/07/19 02:40:28;;;;;;;2.73;2.50;;;;;;;19.14;45.23;101690.91;5003531;28;97327;-47
2022/07/19 02:42:54;;;;;;;2.43;2.23;;;;;;;19.14;45.37;101691.66;5003092;28;97064;-47
2022/07/19 02:45:19;;;;;;;3.40;3.10;;;;;;;19.15;45.34;101690.41;5005508;28;97229;-48
2022/07/19 02:47:46;;;;;;;2.80;2.60;;;;;;;19.15;45.48;101689.66;5006142;28;97212;-47
2022/07/19 02:50:12;;;;;;;2.80;2.60;;;;;;;19.13;45.52;101692.94;5007562;28;97196;-47
2022/07/19 02:52:37;;;;;;;2.90;2.70;;;;;;;19.09;45.47;101694.53;5004176;28;97269;-47
2022/07/19 02:55:03;;;;;;;2.80;2.60;;;;;;;19.03;45.53;101700.19;5004052;28;96930;-48
2022/07/19 02:57:28;;;;;;;3.10;2.80;;;;;;;18.98;45.61;101691.88;5004436;28;97073;-47
2022/07/19 02:59:54;;;;;;;3.50;3.20;;;;;;;18.94;45.62;101694.19;5002585;28;96837;-46
2022/07/19 03:02:19;;;;;;;2.77;2.60;;;;;;;18.90;45.85;101697.28;5003533;28;96833;-47
2022/07/19 03:04:45;;;;;;;3.73;3.43;;;;;;;18.87;45.67;101692.75;5005004;28;96881;-46
2022/07/19 03:07:10;;;;;;;3.27;2.97;;;;;;;18.83;45.77;101699.94;5002894;28;97178;-47
2022/07/19 03:09:36;;;;;;;3.40;2.97;;;;;;;18.81;45.95;101697.66;5018112;22;96992;-81
2022/07/19 03:12:01;;;;;;;3.63;2.63;;;;;;;18.80;45.87;101704.53;4967209;28;97555;-82
2022/07/19 03:14:27;;;;;;;2.50;2.30;;;;;;;18.76;45.82;101698.50;4968575;28;97213;-82
2022/07/19 03:16:53;;;;;;;3.70;3.40;;;;;;;18.74;46.08;101695.44;4968815;28;99101;-82
2022/07/19 03:19:18;;;;;;;2.93;2.73;;;;;;;18.69;45.99;101701.84;4967779;28;97053;-82
2022/07/19 03:21:43;;;;;;;3.20;3.00;;;;;;;18.66;45.94;101705.69;4974590;28;96965;-81
2022/07/19 03:24:09;;;;;;;4.47;3.30;;;;;;;18.64;46.16;101694.31;4968439;28;100238;-82
2022/07/19 03:26:34;;;;;;;2.90;2.70;;;;;;;18.62;46.18;101699.66;4967917;28;100326;-82
2022/07/19 03:29:02;;;;;;;3.27;3.07;;;;;;;18.60;46.23;101719.69;4968301;28;97012;-82
2022/07/19 03:31:28;;;;;;;3.73;3.40;;;;;;;18.58;46.18;101718.69;4966131;28;98365;-82
2022/07/19 03:33:53;;;;;;;3.40;3.10;;;;;;;18.50;46.29;101737.28;4965190;28;104651;-82
2022/07/19 03:36:18;;;;;;;3.30;3.10;;;;;;;18.51;46.32;101731.19;4964438;28;96997;-83
2022/07/19 03:38:44;;;;;;;2.80;2.60;;;;;;;18.46;46.47;101706.13;4964421;28;97483;-83
2022/07/19 03:41:12;;;;;;;3.80;2.60;;;;;;;18.34;46.61;101685.97;4971510;28;97341;-83
2022/07/19 03:43:38;;;;;;;3.23;3.00;;;;;;;18.43;46.34;101702.34;4967743;28;99624;-83
2022/07/19 03:46:06;;;;;;;6.83;2.90;;;;;;;18.32;46.66;101741.47;4945777;28;99005;-82
2022/07/19 03:48:31;;;;;;;3.90;3.23;;;;;;;18.24;46.71;101728.63;4967645;28;97169;-83
2022/07/19 03:50:56;;;;;;;3.20;3.00;;;;;;;18.19;46.66;101685.63;4966014;28;98210;-83
2022/07/19 03:53:24;;;;;;;3.23;2.93;;;;;;;18.24;47.04;101723.06;4965249;28;97599;-83
2022/07/19 03:55:49;;;;;;;2.73;2.53;;;;;;;18.12;46.92;101713.25;4966039;28;99087;-83
2022/07/19 03:58:15;;;;;;;3.30;3.00;;;;;;;18.09;47.10;101744.94;4974631;28;98897;-83
2022/07/19 04:00:45;;;;;;;3.50;3.00;;;;;;;18.04;47.19;101749.31;4961634;28;96779;-83
2022/07/19 04:03:15;;;;;;;3.83;3.17;;;;;;;18.10;47.15;101757.59;4970877;28;98962;-83
2022/07/19 04:05:40;;;;;;;2.73;2.53;;;;;;;18.05;47.34;101719.41;4964423;28;96905;-84
2022/07/19 04:08:09;;;;;;;4.53;3.00;;;;;;;18.17;47.40;101710.44;4967384;28;96893;-83
2022/07/19 04:10:34;;;;;;;3.50;3.20;;;;;;;18.10;47.14;101705.44;4957162;28;97115;-83
2022/07/19 04:13:07;;;;;;;2.90;2.70;;;;;;;18.18;47.85;101711.19;4975132;28;97196;-83
2022/07/19 04:15:36;;;;;;;3.60;3.30;;;;;;;18.12;47.22;101722.38;4964463;28;104450;-84
2022/07/19 04:18:01;;;;;;;3.77;3.00;;;;;;;18.21;47.24;101712.94;4946307;28;98077;-82
2022/07/19 04:20:27;;;;;;;6.37;2.50;;;;;;;18.24;47.27;101760.00;4944797;28;97111;-83
2022/07/19 04:22:53;;;;;;;3.43;3.13;;;;;;;18.29;47.36;101730.59;4963429;28;100827;-83
2022/07/19 04:25:19;;;;;;;3.77;2.70;;;;;;;18.24;47.40;101731.41;4972420;28;99161;-83
2022/07/19 04:27:45;;;;;;;3.40;2.97;;;;;;;18.26;47.31;101695.44;4957000;28;97196;-82
2022/07/19 04:30:10;;;;;;;3.17;2.87;;;;;;;18.26;47.31;101762.28;4957613;28;97407;-83
2022/07/19 04:32:36;;;;;;;3.10;2.80;;;;;;;18.31;47.41;101747.53;4943828;28;100362;-83
2022/07/19 04:35:53;;;;;;;3.03;2.83;;;;;;;18.29;48.18;101717.41;4953538;28;99159;-83
2022/07/19 04:38:42;;;;;;;3.27;2.97;;;;;;;18.33;48.14;101753.34;4905035;28;98500;-83
2022/07/19 04:51:44;;;;;;;3.43;3.13;;;;;;;18.49;47.33;101714.22;4940634;22;97560;-51
2022/07/19 04:54:09;;;;;;;2.70;2.50;;;;;;;18.51;47.38;101719.28;5003800;28;96760;-51
2022/07/19 04:56:34;;;;;;;3.10;2.70;;;;;;;18.54;47.26;101716.19;5004525;28;97900;-52
2022/07/19 04:59:00;;;;;;;3.40;3.10;;;;;;;18.56;47.51;101712.88;5002303;28;97108;-54
2022/07/19 05:01:25;;;;;;;4.90;2.87;;;;;;;18.59;47.47;101717.41;4987675;28;97408;-52
2022/07/19 05:03:51;;;;;;;4.67;2.77;;;;;;;18.61;47.46;101709.28;4987056;28;97415;-50
2022/07/19 05:06:16;;;;;;;5.53;3.13;;;;;;;18.65;47.49;101718.84;4992220;28;98500;-51
2022/07/19 05:08:41;;;;;;;3.67;3.33;;;;;;;18.70;47.51;101715.25;4987281;28;97317;-53
2022/07/19 05:11:07;;;;;;;6.10;3.47;;;;;;;18.73;47.55;101716.25;4990950;28;97011;-52
2022/07/19 05:13:32;;;;;;;9.40;3.43;;;;;;;18.78;47.81;101720.25;4989554;28;97373;-51
2022/07/19 05:15:57;;;;;;;6.43;3.33;;;;;;;18.81;47.84;101717.16;4989811;28;96970;-52
2022/07/19 05:18:23;;;;;;;5.60;3.50;;;;;;;18.85;47.81;101717.63;4989006;28;96942;-51
2022/07/19 05:20:48;;;;;;;5.40;2.80;;;;;;;18.89;47.70;101711.78;4986096;28;98583;-54
2022/07/19 05:23:13;;;;;;;9.97;3.70;;;;;;;18.93;47.73;101723.38;4988615;28;96809;-51
2022/07/19 05:25:39;;;;;;;5.57;3.37;;;;;;;18.98;47.78;101728.88;4990615;28;97307;-52
2022/07/19 05:28:04;;;;;;;8.07;2.80;;;;;;;19.04;47.87;101729.59;4986768;28;97364;-52
2022/07/19 05:30:30;;;;;;;4.60;2.80;;;;;;;19.12;47.78;101724.91;4989976;28;96876;-51
2022/07/19 05:32:55;;;;;;;4.53;3.20;;;;;;;19.17;47.76;101729.69;4986364;28;96966;-51
2022/07/19 05:35:20;;;;;;;4.07;3.13;;;;;;;19.22;47.74;101728.09;4987498;28;98575;-51
2022/07/19 05:37:46;;;;;;;9.47;3.50;;;;;;;19.26;47.69;101731.34;4985004;28;106150;-51
2022/07/19 05:40:11;;;;;;;8.90;3.40;;;;;;;19.34;47.87;101735.84;4968384;28;97217;-52
2022/07/19 05:42:37;;;;;;;9.07;3.50;;;;;;;19.42;47.92;101736.72;4986882;28;97170;-51
2022/07/19 05:45:03;;;;;;;7.50;3.77;;;;;;;19.50;47.71;101733.34;4987778;28;98697;-52
2022/07/19 05:47:28;;;;;;;4.90;3.03;;;;;;;19.58;47.90;101737.78;4989197;28;97292;-52
2022/07/19 05:49:53;;;;;;;7.40;3.20;;;;;;;19.68;48.02;101730.53;4992000;28;97203;-51
2022/07/19 05:52:19;;;;;;;5.70;3.50;;;;;;;19.77;48.15;101737.75;4981743;28;97295;-51
2022/07/19 05:54:44;;;;;;;7.90;3.40;;;;;;;19.86;48.08;101740.94;4989876;28;96783;-54
2022/07/19 05:57:09;;;;;;;4.30;3.10;;;;;;;19.96;48.03;101741.28;4983963;28;99495;-52
2022/07/19 05:59:35;;;;;;;5.77;2.70;;;;;;;20.05;47.96;101738.09;4985075;28;97177;-51
2022/07/19 06:02:02;;;;;;;8.10;3.50;;;;;;;20.15;48.16;101739.19;4987813;28;97161;-53
2022/07/19 06:04:27;;;;;;;2.63;2.43;;;;;;;20.24;48.05;101741.63;4985052;28;97654;-51
2022/07/19 06:06:52;;;;;;;2.90;2.70;;;;;;;20.35;47.99;101744.22;4987791;28;96737;-51
2022/07/19 06:09:18;;;;;;;2.90;2.70;;;;;;;20.45;47.84;101742.53;4987323;28;97299;-52
2022/07/19 06:11:43;;;;;;;3.07;2.87;;;;;;;20.57;47.94;101741.06;4986321;28;97208;-52
2022/07/19 06:14:10;;;;;;;2.63;2.47;;;;;;;20.70;47.82;101737.50;4988545;28;98593;-52
2022/07/19 06:16:38;;;;;;;4.97;3.10;;;;;;;20.81;48.08;101737.28;4982762;28;97401;-52
2022/07/19 06:19:03;;;;;;;2.57;2.37;;;;;;;20.92;47.98;101739.88;4987340;28;97307;-51
2022/07/19 06:21:28;;;;;;;4.30;2.93;;;;;;;21.04;47.90;101743.22;4984645;28;97191;-51
2022/07/19 06:23:54;;;;;;;2.73;2.60;;;;;;;21.15;47.83;101748.59;4986194;28;98083;-53
2022/07/19 06:26:19;;;;;;;3.10;2.90;;;;;;;21.25;47.62;101732.88;4987779;28;98322;-51
2022/07/19 06:28:44;;;;;;;2.90;2.70;;;;;;;21.37;47.82;101734.88;4986070;28;96901;-51
2022/07/19 06:31:14;;;;;;;2.40;2.20;;;;;;;21.50;47.94;101729.25;4987478;28;97063;-52
2022/07/19 06:33:40;;;;;;;2.80;2.60;;;;;;;21.62;47.71;101733.28;4981535;28;97974;-52
2022/07/19 06:36:06;;;;;;;3.33;3.03;;;;;;;21.75;47.73;101726.91;4986729;28;97167;-55
2022/07/19 06:38:31;;;;;;;2.97;2.57;;;;;;;21.87;47.66;101721.81;4984560;28;97160;-52
2022/07/19 06:40:57;;;;;;;3.60;2.80;;;;;;;22.02;47.54;101724.75;4983929;28;96770;-51
2022/07/19 06:43:22;;;;;;;2.77;2.57;;;;;;;22.14;47.44;101723.94;4986500;28;97405;-51
2022/07/19 06:45:47;;;;;;;2.47;2.27;;;;;;;22.28;47.38;101722.56;4986225;28;97238;-52
2022/07/19 06:48:13;;;;;;;2.70;2.50;;;;;;;22.43;47.15;101726.78;4986915;28;97568;-52
2022/07/19 06:50:38;;;;;;;2.53;2.33;;;;;;;22.58;47.13;101722.03;4981491;28;97076;-51
2022/07/19 06:53:03;;;;;;;2.73;2.53;;;;;;;22.73;46.82;101724.97;4986157;28;97905;-52
2022/07/19 06:55:29;;;;;;;3.37;3.07;;;;;;;22.86;46.67;101719.25;4985776;28;97776;-51
2022/07/19 06:57:54;;;;;;;2.27;2.07;;;;;;;23.02;46.71;101720.81;4986674;28;96659;-52
2022/07/19 07:00:19;;;;;;;6.00;2.30;;;;;;;23.18;46.18;101720.88;4984486;28;96970;-51
2022/07/19 07:02:45;;;;;;;4.33;2.53;;;;;;;23.35;45.89;101726.81;4985667;28;97944;-52
2022/07/19 07:05:11;;;;;;;3.20;2.17;;;;;;;23.54;45.31;101730.03;4987532;28;97137;-53
2022/07/19 07:07:37;;;;;;;2.53;2.30;;;;;;;23.70;45.06;101731.56;4986491;28;96710;-51
2022/07/19 07:10:06;;;;;;;2.00;1.90;;;;;;;23.88;44.92;101732.53;4985437;28;98629;-55
2022/07/19 07:12:32;;;;;;;2.70;2.30;;;;;;;24.05;44.27;101733.53;4985447;28;96760;-51
2022/07/19 07:14:57;;;;;;;3.40;2.50;;;;;;;24.23;44.26;101734.47;4986152;28;97229;-51
2022/07/19 07:17:22;;;;;;;2.90;2.70;;;;;;;24.40;44.07;101729.03;4983005;28;96622;-51
2022/07/19 07:19:48;;;;;;;2.33;2.13;;;;;;;24.58;43.89;101728.63;4985049;28;97209;-53
2022/07/19 07:22:13;;;;;;;3.17;2.00;;;;;;;24.75;43.63;101728.06;4966400;28;99019;-51
2022/07/19 07:24:39;;;;;;;3.20;2.20;;;;;;;24.93;43.35;101729.72;4966251;28;99441;-53
2022/07/19 07:27:05;;;;;;;2.37;2.17;;;;;;;25.13;42.83;101731.53;4988332;28;97358;-53
2022/07/19 07:29:30;;;;;;;2.90;2.20;;;;;;;25.32;42.87;101719.78;4985839;28;96781;-52
2022/07/19 07:31:56;;;;;;;2.07;1.87;;;;;;;25.51;42.44;101719.38;4982767;28;96927;-52
2022/07/19 07:34:22;;;;;;;2.80;2.60;;;;;;;25.64;42.19;101721.91;4988126;28;97428;-52
2022/07/19 07:36:47;;;;;;;3.33;2.53;;;;;;;25.82;42.29;101721.41;4982323;28;96757;-51
2022/07/19 07:39:13;;;;;;;2.40;2.20;;;;;;;25.98;41.69;101727.69;4984367;28;96880;-52
2022/07/19 07:41:39;;;;;;;2.43;2.23;;;;;;;26.16;41.23;101725.69;4985122;28;97252;-52
2022/07/19 07:44:04;;;;;;;3.10;2.07;;;;;;;26.34;41.09;101727.25;4986156;28;97274;-52
2022/07/19 07:46:30;;;;;;;2.47;2.00;;;;;;;26.48;40.84;101715.06;4985724;28;96604;-52
2022/07/19 07:48:55;;;;;;;3.47;2.40;;;;;;;26.64;40.34;101713.59;4982520;28;96979;-52
2022/07/19 07:51:21;;;;;;;2.70;2.50;;;;;;;26.85;40.32;101718.09;4985369;28;97020;-50
2022/07/19 07:53:46;;;;;;;2.50;1.83;;;;;;;27.02;40.40;101715.28;4982993;28;96659;-52
2022/07/19 07:56:12;;;;;;;3.10;2.67;;;;;;;27.16;39.84;101711.50;4979260;28;96976;-52
2022/07/19 07:58:37;;;;;;;3.27;2.50;;;;;;;27.34;39.65;101703.75;4987694;28;97144;-52
2022/07/19 08:01:03;;;;;;;3.83;2.47;;;;;;;27.53;39.83;101698.22;4982638;28;97358;-52
2022/07/19 08:03:28;;;;;;;2.77;2.57;;;;;;;27.71;39.46;101701.72;4964990;28;101041;-53
2022/07/19 08:05:54;;;;;;;2.17;1.97;;;;;;;27.87;39.16;101700.88;4985121;28;96910;-52
2022/07/19 08:08:19;;;;;;;1.80;1.70;;;;;;;28.02;38.89;101706.34;4956545;28;97311;-52
2022/07/19 08:10:45;;;;;;;2.40;2.17;;;;;;;28.14;38.90;101707.28;4977113;28;97270;-53
2022/07/19 08:13:10;;;;;;;2.40;2.27;;;;;;;28.27;38.81;101705.34;4982914;28;97199;-52
2022/07/19 08:15:37;;;;;;;2.47;2.23;;;;;;;28.43;38.05;101700.94;4986945;28;96842;-52
2022/07/19 08:18:03;;;;;;;2.30;1.97;;;;;;;28.57;37.82;101694.25;4989202;28;97645;-52
2022/07/19 08:20:28;;;;;;;1.83;1.73;;;;;;;28.75;37.55;101697.69;4981304;28;97395;-52
2022/07/19 08:22:53;;;;;;;1.97;1.70;;;;;;;28.86;37.26;101703.53;4988442;28;96356;-52
2022/07/19 08:25:19;;;;;;;1.97;1.87;;;;;;;28.97;36.90;101699.34;4983148;28;96881;-51
2022/07/19 08:27:44;;;;;;;3.13;1.97;;;;;;;29.11;36.44;101702.44;4978832;28;96865;-52
2022/07/19 08:30:11;;;;;;;2.70;2.30;;;;;;;29.22;35.77;101704.72;4984759;28;97020;-53
2022/07/19 08:32:37;;;;;;;2.03;1.93;;;;;;;29.37;35.73;101707.97;4985473;28;97176;-52
2022/07/19 08:35:04;;;;;;;4.43;1.53;;;;;;;29.49;35.18;101714.47;4983263;28;96908;-53
2022/07/19 08:37:30;;;;;;;4.33;1.90;;;;;;;29.62;34.71;101710.41;4984010;28;96879;-51
2022/07/19 08:39:55;;;;;;;2.23;2.10;;;;;;;29.78;35.22;101708.75;4985360;28;108818;-53
2022/07/19 08:42:21;;;;;;;2.67;1.87;;;;;;;29.91;34.80;101699.72;4985086;28;102899;-53
2022/07/19 08:44:50;;;;;;;2.33;2.13;;;;;;;30.07;34.68;101695.16;4982599;28;97397;-52
2022/07/19 08:47:17;;;;;;;2.10;2.00;;;;;;;30.21;34.09;101692.53;4981441;28;96951;-52
2022/07/19 08:49:43;;;;;;;2.00;1.90;;;;;;;30.38;33.89;101700.84;4981582;28;98885;-52
2022/07/19 08:52:09;;;;;;;2.20;2.00;;;;;;;30.53;33.59;101691.91;4983213;28;97138;-53
2022/07/19 08:54:34;;;;;;;1.80;1.70;;;;;;;30.72;33.72;101682.47;4986385;28;97187;-52
2022/07/19 08:59:43;;;;;;;2.63;1.77;;;;;;;31.06;33.02;101694.00;4984825;28;101569;-51
2022/07/19 09:02:09;;;;;;;1.83;1.73;;;;;;;31.23;32.92;101686.50;4965626;28;98370;-53
2022/07/19 09:04:34;;;;;;;2.73;1.97;;;;;;;31.39;32.48;101693.22;4968229;28;97052;-53
2022/07/19 09:07:00;;;;;;;2.13;1.67;;;;;;;31.55;31.88;101691.41;4982894;28;97233;-50
2022/07/19 09:09:28;;;;;;;2.33;2.13;;;;;;;31.72;32.01;101691.78;4985261;28;96824;-50
2022/07/19 09:11:55;;;;;;;1.90;1.80;;;;;;;31.88;31.27;101691.28;4986312;28;96578;-50
2022/07/19 09:14:25;;;;;;;2.80;1.40;;;;;;;32.00;31.03;101675.72;4981527;28;98205;-51
2022/07/19 09:16:52;;;;;;;1.60;1.50;;;;;;;32.11;30.85;101686.34;4982648;28;96741;-51
2022/07/19 09:19:18;;;;;;;1.60;1.50;;;;;;;32.20;30.77;101679.03;4983253;28;98133;-50
2022/07/19 09:22:03;;;;;;;1.80;1.70;;;;;;;32.31;29.65;101684.69;4983962;28;97063;-51
2022/07/19 09:24:32;;;;;;;2.00;1.90;;;;;;;32.43;30.06;101678.97;4979775;28;96635;-51
2022/07/19 09:27:09;;;;;;;2.87;1.60;;;;;;;32.52;29.48;101678.84;4984582;28;96775;-51
2022/07/19 09:29:37;;;;;;;2.03;1.73;;;;;;;32.64;29.90;101678.81;4983669;28;100468;-50
2022/07/19 09:32:07;;;;;;;1.70;1.60;;;;;;;32.75;29.38;101680.88;4984182;28;97310;-51
2022/07/19 09:34:54;;;;;;;1.50;1.40;;;;;;;32.88;28.35;101676.59;4962203;28;97437;-51
2022/07/19 09:37:22;;;;;;;1.70;1.30;;;;;;;33.04;29.20;101675.44;4982526;28;96618;-51
2022/07/19 09:39:50;;;;;;;1.60;1.50;;;;;;;33.22;28.56;101672.84;4983595;28;97082;-51
2022/07/19 09:42:19;;;;;;;1.27;1.17;;;;;;;33.40;28.63;101667.41;4982061;28;101525;-50
2022/07/19 09:44:45;;;;;;;1.17;1.07;;;;;;;33.58;28.24;101674.09;4982994;28;96917;-50
2022/07/19 09:47:11;;;;;;;2.80;1.90;;;;;;;33.73;27.41;101662.78;4985292;28;97054;-50
2022/07/19 09:49:37;;;;;;;1.50;1.40;;;;;;;33.84;27.43;101664.06;4985141;28;97440;-51
2022/07/19 09:52:02;;;;;;;1.93;1.33;;;;;;;34.01;27.00;101657.84;4986297;28;97041;-51
2022/07/19 09:54:29;;;;;;;1.17;1.07;;;;;;;34.20;26.83;101660.25;4987818;28;97305;-51
2022/07/19 09:56:56;;;;;;;1.27;1.10;;;;;;;34.31;26.39;101650.81;4986800;28;97054;-50
2022/07/19 09:59:24;;;;;;;2.40;1.07;;;;;;;34.41;26.28;101659.16;4984650;28;97011;-51
2022/07/19 10:01:52;;;;;;;1.77;1.27;;;;;;;34.53;26.12;101649.06;4984993;28;97453;-51
2022/07/19 10:04:23;;;;;;;0.93;0.93;;;;;;;34.73;26.06;101646.47;4984704;28;98071;-50
2022/07/19 10:06:50;;;;;;;1.10;1.10;;;;;;;34.92;25.82;101651.69;4987076;28;97042;-51
2022/07/19 10:09:17;;;;;;;1.27;1.20;;;;;;;35.02;25.49;101643.59;4989740;28;97379;-52
2022/07/19 10:11:43;;;;;;;1.40;1.30;;;;;;;35.15;25.30;101644.91;4962837;28;97600;-51
2022/07/19 10:14:10;;;;;;;1.30;1.20;;;;;;;35.24;24.94;101643.91;4986634;28;97017;-51
2022/07/19 10:16:48;;;;;;;1.20;1.10;;;;;;;35.32;24.67;101642.16;4986818;28;96954;-52
2022/07/19 10:19:28;;;;;;;2.60;1.20;;;;;;;35.40;25.03;101642.53;4988142;28;98434;-51
2022/07/19 10:21:54;;;;;;;1.30;1.20;;;;;;;35.51;25.58;101634.41;4984146;28;100211;-52
2022/07/19 10:24:49;;;;;;;1.37;1.37;;;;;;;35.59;24.66;101643.34;4970929;28;97282;-51
2022/07/19 10:27:17;;;;;;;1.00;1.00;;;;;;;35.67;24.83;101640.88;4983058;28;97074;-52
2022/07/19 10:29:43;;;;;;;1.40;1.27;;;;;;;35.71;24.64;101624.59;4985924;28;97436;-52
2022/07/19 10:32:11;;;;;;;1.40;1.30;;;;;;;35.81;24.37;101633.63;4984856;28;99581;-51
2022/07/19 10:34:36;;;;;;;1.23;1.17;;;;;;;35.88;24.46;101626.03;4985142;28;97514;-50
2022/07/19 10:37:03;;;;;;;1.27;1.27;;;;;;;35.92;23.86;101626.22;4983001;28;97029;-52
2022/07/19 10:39:33;;;;;;;1.90;1.37;;;;;;;35.98;23.97;101626.50;4987738;28;97334;-51
2022/07/19 10:42:11;;;;;;;1.07;1.00;;;;;;;36.04;21.89;101615.31;4985484;28;97165;-51
2022/07/19 10:44:56;;;;;;;1.27;1.20;;;;;;;36.09;22.70;101616.94;4988359;28;97082;-50
2022/07/19 10:47:32;;;;;;;2.30;1.20;;;;;;;36.21;24.00;101616.72;4968219;28;97133;-52
2022/07/19 10:50:04;;;;;;;1.03;0.93;;;;;;;36.26;23.51;101619.09;4987223;28;97055;-51
2022/07/19 10:52:34;;;;;;;1.90;1.23;;;;;;;36.33;23.28;101617.94;4985209;28;97181;-51
2022/07/19 10:55:20;;;;;;;2.70;1.10;;;;;;;36.34;21.85;101607.22;4987198;28;97020;-50
2022/07/19 10:57:49;;;;;;;1.17;1.07;;;;;;;36.37;23.02;101605.91;4984485;28;97001;-50
2022/07/19 11:00:21;;;;;;;1.30;1.13;;;;;;;36.44;22.96;101594.06;4984144;28;97223;-51
2022/07/19 11:02:48;;;;;;;1.83;1.30;;;;;;;36.50;22.65;101597.16;4982668;28;97430;-52
2022/07/19 11:05:24;;;;;;;1.30;1.20;;;;;;;36.57;22.69;101590.28;4984005;28;97207;-50
2022/07/19 11:07:51;;;;;;;1.93;1.23;;;;;;;36.67;22.76;101584.22;4982462;28;97095;-49
2022/07/19 11:10:29;;;;;;;1.20;1.10;;;;;;;36.74;21.77;101588.81;4987170;28;97491;-50
2022/07/19 11:12:57;;;;;;;1.13;1.03;;;;;;;36.70;21.73;101586.50;4983534;28;96987;-51
2022/07/19 11:15:22;;;;;;;1.57;1.30;;;;;;;36.74;22.17;101597.41;4987025;28;97424;-50
2022/07/19 11:17:52;;;;;;;1.20;1.20;;;;;;;36.80;21.77;101586.91;4985227;28;96786;-51
2022/07/19 11:20:19;;;;;;;1.37;1.27;;;;;;;36.94;22.00;101586.00;4986679;28;96950;-51
2022/07/19 11:22:46;;;;;;;2.40;1.27;;;;;;;37.05;22.06;101588.56;4984199;28;102812;-51
2022/07/19 11:25:13;;;;;;;1.43;1.33;;;;;;;37.14;21.69;101581.75;4985657;28;97023;-51
2022/07/19 11:27:43;;;;;;;1.40;1.30;;;;;;;37.23;21.04;101589.25;4982497;28;96760;-50
2022/07/19 11:30:10;;;;;;;1.27;1.07;;;;;;;37.26;20.98;101587.22;4984466;28;97259;-50
2022/07/19 11:32:36;;;;;;;1.37;1.27;;;;;;;37.26;21.36;101576.47;4987278;28;96855;-50
2022/07/19 11:35:07;;;;;;;1.30;1.17;;;;;;;37.41;21.10;101574.88;4984691;28;97261;-51
2022/07/19 11:37:35;;;;;;;1.43;1.20;;;;;;;37.46;20.86;101565.00;4981562;28;97156;-50